createdAt,value
2023-02-13T00:01:26.873Z,38.43
2023-02-13T00:03:54.374Z,40.57
2023-02-13T00:06:22.047Z,39.23
2023-02-13T00:08:49.510Z,42.10
2023-02-13T00:11:16.977Z,38.10
2023-02-13T00:13:44.424Z,42.10
2023-02-13T00:16:12.021Z,39.40
2023-02-13T00:18:40.093Z,37.50
2023-02-13T00:21:09.747Z,36.60
2023-02-13T00:23:37.738Z,38.07
2023-02-13T00:26:09.493Z,38.03
2023-02-13T00:28:37.272Z,39.37
2023-02-13T00:31:05.756Z,41.07
2023-02-13T00:33:33.280Z,38.77
2023-02-13T00:36:07.838Z,37.93
2023-02-13T00:38:35.900Z,40.03
2023-02-13T00:41:03.393Z,44.60
2023-02-13T00:43:31.212Z,39.70
2023-02-13T00:45:59.040Z,42.23
2023-02-13T00:48:27.415Z,43.37
2023-02-13T00:50:55.167Z,41.33
2023-02-13T00:53:23.620Z,40.27
2023-02-13T00:55:51.126Z,42.57
2023-02-13T00:58:18.892Z,37.87
2023-02-13T01:00:49.758Z,41.13
2023-02-13T01:03:17.802Z,40.30
2023-02-13T01:05:46.758Z,39.00
2023-02-13T01:08:15.625Z,39.93
2023-02-13T01:10:43.413Z,38.77
2023-02-13T01:13:11.358Z,45.43
2023-02-13T01:15:38.826Z,40.10
2023-02-13T01:18:06.372Z,39.13
2023-02-13T01:20:35.175Z,42.33
2023-02-13T01:23:02.752Z,38.30
2023-02-13T01:25:30.167Z,41.93
2023-02-13T01:27:58.676Z,44.07
2023-02-13T01:30:26.170Z,44.23
2023-02-13T01:32:55.964Z,44.60
2023-02-13T01:35:23.436Z,48.40
2023-02-13T01:37:51.304Z,46.63
2023-02-13T01:40:19.004Z,41.93
2023-02-13T01:42:46.592Z,48.30
2023-02-13T01:45:27.746Z,47.60
2023-02-13T01:47:57.978Z,43.00
2023-02-13T01:50:48.395Z,45.80
2023-02-13T01:53:36.067Z,48.07
2023-02-13T01:56:12.479Z,46.43
2023-02-13T01:58:41.922Z,48.07
2023-02-13T02:01:10.153Z,50.60
2023-02-13T02:03:44.271Z,49.73
2023-02-13T02:06:15.651Z,53.30
2023-02-13T02:08:43.223Z,50.20
2023-02-13T02:11:22.225Z,47.87
2023-02-13T02:13:51.345Z,49.57
2023-02-13T02:16:30.007Z,48.43
2023-02-13T02:18:57.608Z,48.17
2023-02-13T02:21:43.790Z,50.97
2023-02-13T02:24:30.004Z,48.87
2023-02-13T02:27:27.072Z,52.40
2023-02-13T02:30:33.382Z,50.20
2023-02-13T02:33:19.501Z,56.13
2023-02-13T02:36:04.742Z,55.63
2023-02-13T02:38:48.442Z,51.13
2023-02-13T02:41:58.680Z,49.90
2023-02-13T02:44:53.761Z,52.53
2023-02-13T02:47:50.574Z,50.50
2023-02-13T02:50:27.476Z,54.90
2023-02-13T02:53:07.131Z,52.10
2023-02-13T02:55:54.663Z,53.53
2023-02-13T02:59:00.943Z,49.53
2023-02-13T03:01:49.589Z,58.43
2023-02-13T03:04:38.665Z,52.10
2023-02-13T03:07:08.364Z,54.33
2023-02-13T03:09:57.191Z,52.83
2023-02-13T03:12:45.266Z,52.57
2023-02-13T03:15:12.745Z,54.87
2023-02-13T03:17:59.050Z,59.10
2023-02-13T03:21:08.177Z,51.93
2023-02-13T03:23:54.453Z,53.17
2023-02-13T03:26:45.594Z,54.20
2023-02-13T03:29:57.898Z,55.87
2023-02-13T03:32:51.786Z,53.47
2023-02-13T03:35:54.137Z,52.77
2023-02-13T03:38:41.761Z,61.57
2023-02-13T03:41:20.820Z,55.77
2023-02-13T03:44:05.479Z,56.13
2023-02-13T03:46:35.381Z,60.90
2023-02-13T03:49:23.320Z,59.00
2023-02-13T03:51:56.872Z,54.40
2023-02-13T03:54:45.825Z,56.13
2023-02-13T03:57:35.105Z,56.80
2023-02-13T04:00:03.295Z,58.23
2023-02-13T04:02:43.345Z,55.50
2023-02-13T04:05:18.331Z,59.13
2023-02-13T04:07:45.816Z,59.93
2023-02-13T04:10:15.204Z,58.93
2023-02-13T04:13:02.898Z,57.40
2023-02-13T04:15:34.437Z,58.63
2023-02-13T04:18:14.599Z,55.57
2023-02-13T04:20:42.092Z,64.40
2023-02-13T04:23:10.382Z,56.77
2023-02-13T04:25:39.331Z,53.40
2023-02-13T04:28:06.894Z,57.00
2023-02-13T04:30:34.476Z,54.67
2023-02-13T04:33:01.950Z,55.83
2023-02-13T04:35:29.446Z,57.50
2023-02-13T04:37:56.865Z,58.43
2023-02-13T04:40:24.326Z,53.23
2023-02-13T04:42:51.730Z,57.40
2023-02-13T04:45:19.256Z,58.53
2023-02-13T04:47:52.924Z,58.87
2023-02-13T04:50:20.712Z,55.77
2023-02-13T04:52:48.312Z,55.67
2023-02-13T04:55:15.833Z,51.43
2023-02-13T04:57:43.235Z,64.40
2023-02-13T05:00:11.351Z,56.00
2023-02-13T05:02:39.659Z,56.40
2023-02-13T05:05:07.279Z,52.37
2023-02-13T05:07:34.730Z,56.60
2023-02-13T05:10:02.177Z,53.87
2023-02-13T05:12:29.594Z,53.60
2023-02-13T05:14:57.039Z,58.30
2023-02-13T05:17:26.719Z,61.43
2023-02-13T05:19:55.633Z,55.50
2023-02-13T05:22:41.914Z,56.87
2023-02-13T05:25:09.419Z,60.77
2023-02-13T05:27:36.842Z,62.87
2023-02-13T05:30:04.494Z,61.30
2023-02-13T05:32:31.891Z,58.90
2023-02-13T05:34:59.342Z,60.40
2023-02-13T05:37:26.871Z,62.50
2023-02-13T05:39:54.324Z,62.90
2023-02-13T05:42:21.760Z,60.70
2023-02-13T05:44:49.232Z,58.57
2023-02-13T05:47:16.699Z,55.80
2023-02-13T05:49:44.142Z,61.40
2023-02-13T05:52:11.620Z,54.97
2023-02-13T05:54:39.565Z,56.83
2023-02-13T05:57:07.034Z,59.87
2023-02-13T05:59:34.586Z,59.10
2023-02-13T06:02:02.069Z,61.50
2023-02-13T06:04:29.529Z,62.40
2023-02-13T06:06:57.163Z,62.33
2023-02-13T06:09:24.700Z,63.23
2023-02-13T06:11:52.253Z,56.00
2023-02-13T06:14:19.804Z,57.83
2023-02-13T06:16:47.308Z,61.17
2023-02-13T06:19:14.813Z,55.23
2023-02-13T06:21:42.247Z,59.13
2023-02-13T06:24:09.730Z,57.67
2023-02-13T06:26:37.197Z,59.80
2023-02-13T06:29:06.685Z,52.87
2023-02-13T06:31:34.315Z,59.53
2023-02-13T06:34:01.818Z,60.17
2023-02-13T06:36:29.247Z,55.30
2023-02-13T06:38:56.712Z,56.20
2023-02-13T06:41:24.141Z,55.17
2023-02-13T06:43:51.783Z,51.60
2023-02-13T06:46:19.326Z,55.87
2023-02-13T06:48:46.820Z,56.43
2023-02-13T06:51:14.279Z,59.00
2023-02-13T06:53:41.745Z,52.07
2023-02-13T06:56:09.238Z,54.87
2023-02-13T06:58:36.806Z,55.23
2023-02-13T07:01:04.355Z,55.57
2023-02-13T07:03:31.911Z,52.73
2023-02-13T07:05:59.384Z,60.27
2023-02-13T07:08:26.814Z,56.63
2023-02-13T07:10:54.340Z,56.47
2023-02-13T07:13:22.168Z,60.33
2023-02-13T07:15:49.646Z,61.67
2023-02-13T07:18:17.200Z,55.90
2023-02-13T07:20:44.821Z,57.67
2023-02-13T07:23:12.399Z,60.97
2023-02-13T07:25:39.838Z,56.40
2023-02-13T07:28:07.774Z,65.90
2023-02-13T07:30:35.610Z,55.63
2023-02-13T07:33:03.936Z,58.27
2023-02-13T07:35:31.815Z,56.23
2023-02-13T07:38:00.809Z,59.87
2023-02-13T07:40:28.456Z,55.10
2023-02-13T07:42:56.307Z,55.20
2023-02-13T07:45:23.781Z,56.17
2023-02-13T07:47:51.268Z,52.30
2023-02-13T07:50:18.865Z,61.20
2023-02-13T07:52:53.595Z,58.23
2023-02-13T07:55:21.059Z,55.33
2023-02-13T07:57:48.494Z,56.67
2023-02-13T08:00:16.328Z,57.07
2023-02-13T08:02:43.847Z,64.03
2023-02-13T08:05:11.376Z,54.73
2023-02-13T08:07:38.831Z,55.40
2023-02-13T08:10:26.660Z,58.93
2023-02-13T08:12:54.795Z,54.73
2023-02-13T08:15:22.221Z,57.00
2023-02-13T08:17:49.677Z,61.10
2023-02-13T08:20:17.194Z,59.60
2023-02-13T08:22:44.637Z,58.17
2023-02-13T08:25:12.084Z,57.87
2023-02-13T08:27:39.905Z,58.37
2023-02-13T08:30:07.829Z,61.07
2023-02-13T08:32:52.853Z,69.00
2023-02-13T08:35:22.413Z,60.90
2023-02-13T08:37:49.833Z,58.87
2023-02-13T08:40:17.334Z,56.23
2023-02-13T08:42:44.772Z,67.07
2023-02-13T08:45:12.221Z,67.20
2023-02-13T08:47:40.053Z,62.87
2023-02-13T08:50:08.102Z,69.70
2023-02-13T08:52:35.704Z,60.70
2023-02-13T08:55:03.909Z,57.67
2023-02-13T08:57:31.737Z,61.60
2023-02-13T08:59:59.347Z,56.03
2023-02-13T09:02:26.868Z,61.20
2023-02-13T09:04:54.495Z,68.80
2023-02-13T09:07:21.982Z,60.97
2023-02-13T09:09:49.536Z,64.27
2023-02-13T09:12:16.961Z,68.37
2023-02-13T09:14:44.438Z,59.53
2023-02-13T09:17:12.014Z,65.90
2023-02-13T09:19:39.500Z,62.17
2023-02-13T09:22:06.967Z,63.20
2023-02-13T09:24:34.512Z,72.97
2023-02-13T09:27:01.939Z,70.87
2023-02-13T09:29:31.822Z,66.03
2023-02-13T09:31:59.488Z,65.87
2023-02-13T09:34:27.243Z,67.67
2023-02-13T09:36:55.260Z,67.53
2023-02-13T09:39:23.039Z,67.00
2023-02-13T09:41:51.457Z,66.93
2023-02-13T09:44:34.720Z,72.77
2023-02-13T09:47:10.900Z,61.40
2023-02-13T09:49:40.883Z,65.40
2023-02-13T09:52:09.652Z,68.53
2023-02-13T09:54:37.228Z,74.23
2023-02-13T09:57:28.369Z,64.77
2023-02-13T10:00:14.570Z,65.20
2023-02-13T10:03:02.481Z,66.73
2023-02-13T10:05:50.342Z,71.53
2023-02-13T10:08:40.689Z,70.00
2023-02-13T10:11:28.433Z,74.83
2023-02-13T10:14:16.160Z,74.23
2023-02-13T10:17:01.930Z,69.67
2023-02-13T10:19:42.051Z,67.13
2023-02-13T10:22:20.598Z,69.93
2023-02-13T10:24:53.564Z,73.70
2023-02-13T10:27:25.379Z,67.10
2023-02-13T10:30:07.536Z,70.87
2023-02-13T10:33:19.567Z,71.63
2023-02-13T10:35:51.353Z,74.37
2023-02-13T10:38:20.466Z,70.17
2023-02-13T10:41:17.122Z,73.53
2023-02-13T10:44:11.105Z,76.07
2023-02-13T10:46:52.442Z,78.10
2023-02-13T10:49:35.287Z,78.23
2023-02-13T10:52:26.832Z,68.60
2023-02-13T10:55:26.713Z,71.07
2023-02-13T10:58:17.582Z,71.00
2023-02-13T11:00:59.805Z,65.87
2023-02-13T11:03:28.620Z,65.97
2023-02-13T11:05:56.881Z,66.37
2023-02-13T11:08:33.541Z,72.17
2023-02-13T11:11:01.380Z,64.77
2023-02-13T11:13:30.953Z,69.10
2023-02-13T11:16:06.321Z,67.60
2023-02-13T11:18:47.144Z,64.00
2023-02-13T11:21:21.394Z,68.07
2023-02-13T11:23:57.532Z,67.07
2023-02-13T11:26:28.669Z,70.50
2023-02-13T11:29:03.749Z,65.30
2023-02-13T11:31:32.887Z,67.50
2023-02-13T11:34:01.156Z,66.30
2023-02-13T11:36:30.300Z,72.13
2023-02-13T11:39:01.877Z,73.23
2023-02-13T11:41:30.028Z,73.70
2023-02-13T11:44:01.727Z,72.53
2023-02-13T11:46:30.633Z,75.73
2023-02-13T11:48:59.318Z,65.23
2023-02-13T11:51:45.784Z,67.07
2023-02-13T11:54:28.004Z,59.20
2023-02-13T11:57:06.133Z,59.50
2023-02-13T11:59:40.053Z,59.33
2023-02-13T12:02:14.947Z,59.57
2023-02-13T12:04:42.889Z,60.30
2023-02-13T12:07:37.003Z,60.27
2023-02-13T12:10:09.484Z,68.30
2023-02-13T12:12:41.267Z,64.67
2023-02-13T12:15:28.907Z,63.50
2023-02-13T12:18:04.524Z,67.23
2023-02-13T12:20:37.843Z,67.20
2023-02-13T12:23:31.744Z,58.47
2023-02-13T12:26:06.430Z,58.40
2023-02-13T12:28:52.679Z,64.13
2023-02-13T12:31:32.024Z,64.50
2023-02-13T12:34:25.841Z,62.73
2023-02-13T12:37:12.271Z,67.27
2023-02-13T12:39:42.193Z,61.97
2023-02-13T12:42:44.982Z,59.97
2023-02-13T12:45:32.747Z,66.67
2023-02-13T12:48:22.304Z,61.47
2023-02-13T12:51:01.323Z,59.27
2023-02-13T12:53:40.516Z,57.33
2023-02-13T12:56:32.446Z,65.47
2023-02-13T13:02:31.859Z,62.90
2023-02-13T13:05:24.613Z,59.60
2023-02-13T13:16:52.803Z,54.90
2023-02-13T13:19:53.176Z,56.03
2023-02-13T13:22:33.973Z,57.83
2023-02-13T13:25:21.334Z,57.70
2023-02-13T13:27:51.162Z,62.57
2023-02-13T13:30:25.155Z,57.23
2023-02-13T13:32:57.633Z,57.07
2023-02-13T13:35:25.783Z,57.10
2023-02-13T13:38:02.802Z,55.23
2023-02-13T13:40:40.818Z,57.63
2023-02-13T13:43:20.349Z,56.07
2023-02-13T13:46:10.916Z,56.03
2023-02-13T13:48:57.168Z,53.90
2023-02-13T13:51:24.737Z,54.53
2023-02-13T13:54:18.462Z,52.80
2023-02-13T13:57:05.410Z,54.80
2023-02-13T13:59:59.209Z,54.70
2023-02-13T14:02:47.133Z,54.10
2023-02-13T14:05:35.546Z,52.43
2023-02-13T14:08:05.302Z,55.83
2023-02-13T14:10:52.968Z,52.43
2023-02-13T14:13:31.947Z,52.73
2023-02-13T14:15:59.590Z,54.67
2023-02-13T14:18:27.903Z,48.93
2023-02-13T14:21:00.994Z,53.97
2023-02-13T14:23:30.988Z,53.30
2023-02-13T14:26:21.675Z,48.57
2023-02-13T14:28:56.760Z,49.47
2023-02-13T14:31:28.756Z,53.17
2023-02-13T14:34:19.760Z,52.77
2023-02-13T14:37:05.303Z,49.80
2023-02-13T14:39:35.886Z,48.27
2023-02-13T14:42:05.091Z,49.70
2023-02-13T14:44:50.082Z,43.37
2023-02-13T14:47:31.234Z,48.40
2023-02-13T14:50:00.342Z,48.07
2023-02-13T14:52:29.853Z,50.90
2023-02-13T14:55:05.503Z,48.77
2023-02-13T14:57:39.246Z,47.27
2023-02-13T15:00:26.445Z,46.73
2023-02-13T15:02:56.217Z,46.50
2023-02-13T15:05:25.966Z,48.77
2023-02-13T15:07:59.590Z,48.63
2023-02-13T15:10:44.200Z,45.53
2023-02-13T15:13:35.131Z,45.33
2023-02-13T15:16:07.623Z,44.83
2023-02-13T15:18:43.648Z,47.43
2023-02-13T15:21:16.008Z,41.27
2023-02-13T15:23:44.010Z,44.97
2023-02-13T15:26:19.963Z,42.73
2023-02-13T15:28:58.858Z,47.13
2023-02-13T15:31:26.481Z,48.30
2023-02-13T15:33:54.075Z,42.53
2023-02-13T15:36:25.567Z,52.73
2023-02-13T15:39:00.033Z,44.20
2023-02-13T15:41:33.203Z,44.10
2023-02-13T15:44:01.138Z,44.97
2023-02-13T15:46:29.790Z,40.33
2023-02-13T15:48:59.980Z,41.00
2023-02-13T15:51:31.370Z,41.40
2023-02-13T15:54:00.231Z,44.77
2023-02-13T15:56:28.440Z,41.10
2023-02-13T15:58:56.882Z,38.73
2023-02-13T16:01:25.292Z,40.93
2023-02-13T16:04:13.212Z,43.03
2023-02-13T16:06:43.051Z,46.03
2023-02-13T16:09:24.268Z,41.50
2023-02-13T16:11:52.509Z,48.33
2023-02-13T16:14:21.188Z,43.20
2023-02-13T16:16:57.316Z,47.27
2023-02-13T16:19:35.782Z,52.67
2023-02-13T16:22:35.878Z,48.10
2023-02-13T16:25:35.470Z,51.90
2023-02-13T16:28:05.885Z,49.87
2023-02-13T16:31:05.858Z,50.17
2023-02-13T16:33:42.390Z,52.67
2023-02-13T16:36:19.989Z,53.17
2023-02-13T16:38:48.408Z,53.40
2023-02-13T16:41:33.559Z,55.07
2023-02-13T16:44:22.339Z,56.17
2023-02-13T16:47:10.043Z,53.50
2023-02-13T16:49:38.432Z,54.40
2023-02-13T16:52:17.863Z,57.37
2023-02-13T16:54:49.920Z,57.40
2023-02-13T16:57:30.223Z,60.20
2023-02-13T16:59:59.634Z,58.10
2023-02-13T17:02:30.862Z,61.53
2023-02-13T17:05:03.311Z,58.77
2023-02-13T17:07:31.813Z,60.43
2023-02-13T17:10:18.137Z,54.07
2023-02-13T17:12:46.204Z,59.70
2023-02-13T17:15:15.059Z,65.77
2023-02-13T17:17:42.730Z,65.23
2023-02-13T17:20:17.302Z,62.47
2023-02-13T17:22:45.996Z,62.07
2023-02-13T17:25:21.974Z,61.43
2023-02-13T17:27:53.901Z,60.27
2023-02-13T17:30:23.126Z,61.77
2023-02-13T17:32:51.009Z,65.50
2023-02-13T17:35:18.757Z,67.03
2023-02-13T17:37:46.198Z,64.43
2023-02-13T17:40:18.145Z,63.43
2023-02-13T17:42:46.643Z,58.13
2023-02-13T17:45:17.508Z,65.77
2023-02-13T17:47:45.087Z,63.93
2023-02-13T17:50:13.477Z,65.43
2023-02-13T17:52:41.231Z,64.77
2023-02-13T17:55:16.577Z,65.17
2023-02-13T17:57:44.194Z,65.20
2023-02-13T18:00:11.892Z,63.43
2023-02-13T18:02:45.417Z,67.00
2023-02-13T18:05:12.869Z,69.40
2023-02-13T18:07:41.593Z,62.33
2023-02-13T18:10:12.098Z,70.40
2023-02-13T18:12:40.578Z,68.57
2023-02-13T18:15:08.258Z,70.03
2023-02-13T18:17:35.816Z,70.67
2023-02-13T18:20:03.293Z,71.50
2023-02-13T18:22:30.776Z,69.80
2023-02-13T18:24:58.259Z,73.83
2023-02-13T18:27:27.097Z,93.57
2023-02-13T18:29:57.692Z,71.70
2023-02-13T18:32:25.534Z,76.13
2023-02-13T18:34:52.937Z,72.40
2023-02-13T18:37:20.447Z,72.73
2023-02-13T18:39:47.900Z,72.17
2023-02-13T18:42:15.618Z,76.40
2023-02-13T18:44:43.028Z,75.43
2023-02-13T18:47:10.621Z,78.37
2023-02-13T18:49:38.059Z,83.07
2023-02-13T18:52:06.033Z,77.27
2023-02-13T18:54:33.497Z,77.60
2023-02-13T18:57:01.089Z,76.07
2023-02-13T18:59:28.617Z,74.07
2023-02-13T19:01:56.543Z,74.47
2023-02-13T19:04:23.969Z,80.83
2023-02-13T19:06:51.985Z,77.23
2023-02-13T19:09:19.469Z,85.53
2023-02-13T19:11:48.600Z,75.07
2023-02-13T19:14:16.864Z,75.80
2023-02-13T19:16:44.523Z,77.10
2023-02-13T19:19:11.986Z,72.93
2023-02-13T19:21:39.983Z,74.60
2023-02-13T19:24:09.416Z,77.40
2023-02-13T19:26:37.405Z,76.00
2023-02-13T19:29:04.924Z,81.63
2023-02-13T19:31:33.618Z,85.17
2023-02-13T19:34:01.187Z,86.07
2023-02-13T19:36:30.104Z,86.70
2023-02-13T19:38:58.582Z,93.00
2023-02-13T19:41:26.404Z,88.60
2023-02-13T19:43:53.926Z,90.10
2023-02-13T19:46:23.125Z,83.13
2023-02-13T19:48:51.026Z,78.33
2023-02-13T19:51:19.651Z,73.30
2023-02-13T19:53:47.667Z,82.23
2023-02-13T19:56:15.614Z,79.70
2023-02-13T19:58:43.409Z,90.77
2023-02-13T20:01:12.182Z,87.73
2023-02-13T20:03:39.769Z,85.57
2023-02-13T20:06:09.045Z,89.57
2023-02-13T20:08:36.495Z,90.37
2023-02-13T20:11:04.095Z,83.77
2023-02-13T20:13:32.144Z,93.20
2023-02-13T20:15:59.775Z,78.77
2023-02-13T20:18:27.429Z,80.87
2023-02-13T20:20:55.071Z,83.67
2023-02-13T20:23:22.688Z,88.60
2023-02-13T20:25:50.194Z,79.63
2023-02-13T20:28:17.641Z,82.50
2023-02-13T20:30:45.266Z,81.90
2023-02-13T20:33:12.764Z,82.57
2023-02-13T20:35:40.346Z,84.83
2023-02-13T20:38:07.836Z,83.90
2023-02-13T20:40:35.329Z,84.47
2023-02-13T20:43:02.790Z,79.17
2023-02-13T20:45:30.359Z,80.53
2023-02-13T20:47:57.838Z,99.03
2023-02-13T20:50:25.354Z,87.70
2023-02-13T20:52:52.852Z,97.73
2023-02-13T20:55:20.419Z,94.40
2023-02-13T20:57:47.851Z,93.37
2023-02-13T21:00:15.785Z,85.27
2023-02-13T21:02:43.288Z,87.97
2023-02-13T21:05:10.800Z,84.90
2023-02-13T21:07:38.592Z,110.17
2023-02-13T21:10:06.889Z,97.53
2023-02-13T21:12:35.038Z,94.07
2023-02-13T21:15:02.594Z,101.30
2023-02-13T21:17:30.053Z,92.73
2023-02-13T21:19:57.568Z,98.57
2023-02-13T21:22:25.238Z,109.60
2023-02-13T21:24:52.845Z,91.33
2023-02-13T21:27:20.467Z,99.73
2023-02-13T21:29:48.165Z,98.00
2023-02-13T21:32:15.716Z,112.67
2023-02-13T21:34:43.393Z,96.93
2023-02-13T21:37:10.890Z,91.70
2023-02-13T21:39:38.966Z,91.07
2023-02-13T21:42:06.556Z,106.60
2023-02-13T21:44:34.103Z,102.30
2023-02-13T21:47:01.600Z,90.73
2023-02-13T21:49:29.280Z,86.63
2023-02-13T21:51:56.781Z,93.27
2023-02-13T21:54:24.372Z,99.43
2023-02-13T21:56:52.086Z,85.80
2023-02-13T21:59:19.719Z,96.93
2023-02-13T22:01:48.104Z,91.50
2023-02-13T22:04:15.642Z,99.37
2023-02-13T22:06:43.369Z,102.23
2023-02-13T22:09:12.196Z,90.27
2023-02-13T22:11:40.024Z,99.27
2023-02-13T22:14:08.453Z,92.70
2023-02-13T22:16:37.105Z,111.70
2023-02-13T22:19:05.095Z,101.43
2023-02-13T22:21:33.307Z,112.13
2023-02-13T22:24:01.221Z,100.03
2023-02-13T22:26:29.847Z,99.70
2023-02-13T22:28:59.902Z,95.30
2023-02-13T22:31:27.566Z,98.30
2023-02-13T22:34:03.540Z,119.17
2023-02-13T22:36:32.601Z,120.30
2023-02-13T22:39:00.098Z,95.20
2023-02-13T22:41:27.998Z,104.00
2023-02-13T22:43:55.636Z,102.67
2023-02-13T22:46:33.510Z,110.60
2023-02-13T22:49:01.205Z,117.57
2023-02-13T22:51:30.836Z,106.40
2023-02-13T22:53:58.826Z,109.37
2023-02-13T22:56:26.838Z,105.20
2023-02-13T22:58:54.314Z,117.40
2023-02-13T23:01:22.844Z,123.93
2023-02-13T23:03:50.361Z,135.27
2023-02-13T23:06:18.672Z,99.43
2023-02-13T23:08:49.076Z,112.63
2023-02-13T23:11:36.580Z,98.17
2023-02-13T23:14:04.488Z,115.57
2023-02-13T23:16:51.897Z,112.93
2023-02-13T23:19:19.491Z,124.17
2023-02-13T23:21:46.903Z,123.63
2023-02-13T23:24:14.433Z,117.53
2023-02-13T23:26:41.877Z,113.83
2023-02-13T23:29:09.736Z,100.17
2023-02-13T23:31:37.326Z,91.67
2023-02-13T23:34:05.070Z,125.67
2023-02-13T23:36:32.502Z,112.67
2023-02-13T23:38:59.972Z,156.27
2023-02-13T23:41:27.361Z,154.43
2023-02-13T23:43:54.911Z,142.67
2023-02-13T23:46:22.450Z,105.33
2023-02-13T23:48:49.931Z,122.27
2023-02-13T23:51:18.438Z,105.07
2023-02-13T23:53:46.249Z,124.80
2023-02-13T23:56:13.724Z,147.20
2023-02-13T23:58:41.172Z,118.90
